createdAt,value
2022-10-03T00:00:30.039Z,99.99
2022-10-03T00:01:30.078Z,99.99
2022-10-03T00:02:30.069Z,99.99
2022-10-03T00:03:29.997Z,99.99
2022-10-03T00:04:29.976Z,99.99
2022-10-03T00:05:29.970Z,99.99
2022-10-03T00:06:29.996Z,99.99
2022-10-03T00:07:29.949Z,99.99
2022-10-03T00:08:29.942Z,99.99
2022-10-03T00:09:29.931Z,99.99
2022-10-03T00:10:29.921Z,99.99
2022-10-03T00:11:29.941Z,99.99
2022-10-03T00:12:29.906Z,99.99
2022-10-03T00:13:29.902Z,99.99
2022-10-03T00:14:29.893Z,99.99
2022-10-03T00:15:29.877Z,99.99
2022-10-03T00:16:29.934Z,99.99
2022-10-03T00:17:29.867Z,99.99
2022-10-03T00:18:29.854Z,99.99
2022-10-03T00:19:29.849Z,99.99
2022-10-03T00:20:29.838Z,99.99
2022-10-03T00:21:29.864Z,99.99
2022-10-03T00:22:29.825Z,99.99
2022-10-03T00:23:29.820Z,99.99
2022-10-03T00:24:29.813Z,99.99
2022-10-03T00:25:29.828Z,99.99
2022-10-03T00:26:29.794Z,99.99
2022-10-03T00:27:29.782Z,99.99
2022-10-03T00:28:29.792Z,99.99
2022-10-03T00:29:29.764Z,99.99
2022-10-03T00:30:29.782Z,99.99
2022-10-03T00:31:29.801Z,99.99
2022-10-03T00:32:29.741Z,99.99
2022-10-03T00:33:29.726Z,99.99
2022-10-03T00:34:29.724Z,99.99
2022-10-03T00:35:29.747Z,99.99
2022-10-03T00:36:29.701Z,99.99
2022-10-03T00:37:29.698Z,99.99
2022-10-03T00:38:29.688Z,99.99
2022-10-03T00:39:29.667Z,99.99
2022-10-03T00:40:29.705Z,99.99
2022-10-03T00:41:29.660Z,99.99
2022-10-03T00:42:29.659Z,99.99
2022-10-03T00:43:29.646Z,99.99
2022-10-03T00:44:29.634Z,99.99
2022-10-03T00:45:29.655Z,99.99
2022-10-03T00:46:29.654Z,99.99
2022-10-03T00:47:29.624Z,99.99
2022-10-03T00:48:29.597Z,99.99
2022-10-03T00:49:29.591Z,99.99
2022-10-03T00:50:29.614Z,99.99
2022-10-03T00:51:29.576Z,99.99
2022-10-03T00:52:29.564Z,99.99
2022-10-03T00:53:29.561Z,99.99
2022-10-03T00:54:29.551Z,99.99
2022-10-03T00:55:29.580Z,99.99
2022-10-03T00:56:29.535Z,99.99
2022-10-03T00:57:29.530Z,99.99
2022-10-03T00:58:29.521Z,99.99
2022-10-03T00:59:29.516Z,99.99
2022-10-03T01:00:29.542Z,99.99
2022-10-03T01:01:29.510Z,99.99
2022-10-03T01:02:29.559Z,99.99
2022-10-03T01:03:29.526Z,99.99
2022-10-03T01:04:29.522Z,99.99
2022-10-03T01:05:29.468Z,99.99
2022-10-03T01:06:29.487Z,99.99
2022-10-03T01:07:29.456Z,99.99
2022-10-03T01:08:29.443Z,99.99
2022-10-03T01:09:29.436Z,99.99
2022-10-03T01:10:29.418Z,99.99
2022-10-03T01:11:29.511Z,99.99
2022-10-03T01:12:29.409Z,99.99
2022-10-03T01:13:29.391Z,99.99
2022-10-03T01:14:29.387Z,99.99
2022-10-03T01:15:29.383Z,99.99
2022-10-03T01:16:29.509Z,99.99
2022-10-03T01:17:29.372Z,99.99
2022-10-03T01:18:29.355Z,99.99
2022-10-03T01:19:29.348Z,99.99
2022-10-03T01:20:29.339Z,99.99
2022-10-03T01:21:29.434Z,99.99
2022-10-03T01:22:29.322Z,99.99
2022-10-03T01:23:29.317Z,99.99
2022-10-03T01:24:29.303Z,99.99
2022-10-03T01:25:29.301Z,99.99
2022-10-03T01:26:29.359Z,99.99
2022-10-03T01:27:29.281Z,99.99
2022-10-03T01:28:29.288Z,99.99
2022-10-03T01:29:29.267Z,99.99
2022-10-03T01:30:29.249Z,99.99
2022-10-03T01:31:29.312Z,99.99
2022-10-03T01:32:29.237Z,99.99
2022-10-03T01:33:29.220Z,99.99
2022-10-03T01:34:29.221Z,99.99
2022-10-03T01:35:29.216Z,99.99
2022-10-03T01:36:29.246Z,99.99
2022-10-03T01:37:29.194Z,99.99
2022-10-03T01:38:29.189Z,99.99
2022-10-03T01:39:29.176Z,99.99
2022-10-03T01:40:29.220Z,99.99
2022-10-03T01:41:29.201Z,99.99
2022-10-03T01:42:29.170Z,99.99
2022-10-03T01:43:29.150Z,99.99
2022-10-03T01:44:29.143Z,99.99
2022-10-03T01:45:29.128Z,99.99
2022-10-03T01:46:29.230Z,99.99
2022-10-03T01:47:29.119Z,99.99
2022-10-03T01:48:29.106Z,99.99
2022-10-03T01:49:29.093Z,99.99
2022-10-03T01:50:29.112Z,99.99
2022-10-03T01:51:29.106Z,99.99
2022-10-03T01:52:29.074Z,99.99
2022-10-03T01:53:29.062Z,99.99
2022-10-03T01:54:29.056Z,99.99
2022-10-03T01:55:29.068Z,99.99
2022-10-03T01:56:29.032Z,99.99
2022-10-03T01:57:29.067Z,99.99
2022-10-03T01:58:29.021Z,99.99
2022-10-03T01:59:29.004Z,99.99
2022-10-03T02:00:29.026Z,99.99
2022-10-03T02:01:28.999Z,99.99
2022-10-03T02:02:29.067Z,99.99
2022-10-03T02:03:28.969Z,99.99
2022-10-03T02:04:28.957Z,99.99
2022-10-03T02:05:28.980Z,99.99
2022-10-03T02:06:28.942Z,99.99
2022-10-03T02:07:28.932Z,99.99
2022-10-03T02:08:28.939Z,99.99
2022-10-03T02:09:28.950Z,99.99
2022-10-03T02:10:28.914Z,99.99
2022-10-03T02:11:28.908Z,99.99
2022-10-03T02:12:28.899Z,99.99
2022-10-03T02:13:28.890Z,99.99
2022-10-03T02:14:28.920Z,99.99
2022-10-03T02:15:28.871Z,99.99
2022-10-03T02:16:28.912Z,99.99
2022-10-03T02:17:28.885Z,99.99
2022-10-03T02:18:28.854Z,99.99
2022-10-03T02:19:28.863Z,99.99
2022-10-03T02:20:28.820Z,99.99
2022-10-03T02:21:28.836Z,99.99
2022-10-03T02:22:28.808Z,99.99
2022-10-03T02:23:28.804Z,99.99
2022-10-03T02:24:28.824Z,99.99
2022-10-03T02:25:28.786Z,99.99
2022-10-03T02:26:28.775Z,99.99
2022-10-03T02:27:28.763Z,99.99
2022-10-03T02:28:29.790Z,99.99
2022-10-03T02:29:28.783Z,99.99
2022-10-03T02:30:28.734Z,99.99
2022-10-03T02:31:28.818Z,99.99
2022-10-03T02:32:28.723Z,99.99
2022-10-03T02:33:28.702Z,99.99
2022-10-03T02:34:29.742Z,99.99
2022-10-03T02:35:28.698Z,99.99
2022-10-03T02:36:28.689Z,99.99
2022-10-03T02:37:28.676Z,99.99
2022-10-03T02:38:28.673Z,99.99
2022-10-03T02:39:28.665Z,99.99
2022-10-03T02:40:28.685Z,99.99
2022-10-03T02:41:28.642Z,99.99
2022-10-03T02:42:28.627Z,99.99
2022-10-03T02:43:29.633Z,99.99
2022-10-03T02:44:28.632Z,99.99
2022-10-03T02:45:28.700Z,99.99
2022-10-03T02:46:28.624Z,99.99
2022-10-03T02:47:28.602Z,99.99
2022-10-03T02:48:32.561Z,99.99
2022-10-03T02:49:29.583Z,99.99
2022-10-03T02:50:28.608Z,99.99
2022-10-03T02:51:28.572Z,99.99
2022-10-03T02:52:28.558Z,99.99
2022-10-03T02:53:28.543Z,99.99
2022-10-03T02:54:28.539Z,99.99
2022-10-03T02:55:28.557Z,99.99
2022-10-03T02:56:28.584Z,99.99
2022-10-03T02:57:28.514Z,99.99
2022-10-03T02:58:28.508Z,99.99
2022-10-03T02:59:28.504Z,99.99
2022-10-03T03:00:28.515Z,99.99
2022-10-03T03:01:28.623Z,99.99
2022-10-03T03:02:28.534Z,99.99
2022-10-03T03:03:28.461Z,99.99
2022-10-03T03:04:28.456Z,99.99
2022-10-03T03:05:28.478Z,99.99
2022-10-03T03:06:28.508Z,99.99
2022-10-03T03:07:28.430Z,99.99
2022-10-03T03:08:28.426Z,99.99
2022-10-03T03:09:28.411Z,99.99
2022-10-03T03:10:28.435Z,99.99
2022-10-03T03:11:28.400Z,99.99
2022-10-03T03:12:28.390Z,99.99
2022-10-03T03:13:28.386Z,99.99
2022-10-03T03:14:28.364Z,99.99
2022-10-03T03:15:28.425Z,99.99
2022-10-03T03:16:28.475Z,99.99
2022-10-03T03:17:28.344Z,99.99
2022-10-03T03:18:28.345Z,99.99
2022-10-03T03:19:28.331Z,99.99
2022-10-03T03:20:28.364Z,99.99
2022-10-03T03:21:28.321Z,99.99
2022-10-03T03:22:28.307Z,99.99
2022-10-03T03:23:28.297Z,99.99
2022-10-03T03:24:28.299Z,99.99
2022-10-03T03:25:28.312Z,99.99
2022-10-03T03:26:28.295Z,99.99
2022-10-03T03:27:28.274Z,99.99
2022-10-03T03:28:28.278Z,99.99
2022-10-03T03:29:28.251Z,99.99
2022-10-03T03:30:28.236Z,99.99
2022-10-03T03:31:28.287Z,99.99
2022-10-03T03:32:28.246Z,99.99
2022-10-03T03:33:28.247Z,99.99
2022-10-03T03:34:28.219Z,99.99
2022-10-03T03:35:28.199Z,99.99
2022-10-03T03:36:28.239Z,99.99
2022-10-03T03:37:28.191Z,99.99
2022-10-03T03:38:28.173Z,99.99
2022-10-03T03:39:28.174Z,99.99
2022-10-03T03:40:28.186Z,99.99
2022-10-03T03:41:28.151Z,99.99
2022-10-03T03:42:28.141Z,99.99
2022-10-03T03:43:28.133Z,99.99
2022-10-03T03:44:28.125Z,99.99
2022-10-03T03:45:28.168Z,99.99
2022-10-03T03:46:28.105Z,99.99
2022-10-03T03:47:28.104Z,99.99
2022-10-03T03:48:28.091Z,99.99
2022-10-03T03:49:28.080Z,99.99
2022-10-03T03:50:28.067Z,99.99
2022-10-03T03:51:28.091Z,99.99
2022-10-03T03:52:28.057Z,99.99
2022-10-03T03:53:28.053Z,99.99
2022-10-03T03:54:28.041Z,99.99
2022-10-03T03:55:28.055Z,99.99
2022-10-03T03:56:28.058Z,99.99
2022-10-03T03:57:28.027Z,99.99
2022-10-03T03:58:28.067Z,99.99
2022-10-03T03:59:27.998Z,99.99
2022-10-03T04:00:28.003Z,99.99
2022-10-03T04:01:28.047Z,99.99
2022-10-03T04:02:28.012Z,99.99
2022-10-03T04:03:27.966Z,99.99
2022-10-03T04:04:27.970Z,99.99
2022-10-03T04:05:28.953Z,99.99
2022-10-03T04:06:27.982Z,99.99
2022-10-03T04:07:27.938Z,99.99
2022-10-03T04:08:27.935Z,99.99
2022-10-03T04:09:27.911Z,99.99
2022-10-03T04:10:27.910Z,99.99
2022-10-03T04:11:27.920Z,99.99
2022-10-03T04:12:27.886Z,99.99
2022-10-03T04:13:27.876Z,99.99
2022-10-03T04:14:27.873Z,99.99
2022-10-03T04:15:27.858Z,99.99
2022-10-03T04:16:27.932Z,99.99
2022-10-03T04:17:27.845Z,99.99
2022-10-03T04:18:27.836Z,99.99
2022-10-03T04:19:27.841Z,99.99
2022-10-03T04:20:27.824Z,99.99
2022-10-03T04:21:27.854Z,99.99
2022-10-03T04:22:27.817Z,99.99
2022-10-03T04:23:27.799Z,99.99
2022-10-03T04:24:27.796Z,99.99
2022-10-03T04:25:27.784Z,99.99
2022-10-03T04:26:27.804Z,99.99
2022-10-03T04:27:27.777Z,99.99
2022-10-03T04:28:27.784Z,99.99
2022-10-03T04:29:27.750Z,99.99
2022-10-03T04:30:27.738Z,99.99
2022-10-03T04:31:27.822Z,99.99
2022-10-03T04:32:27.726Z,99.99
2022-10-03T04:33:27.724Z,99.99
2022-10-03T04:34:27.709Z,99.99
2022-10-03T04:35:27.697Z,99.99
2022-10-03T04:36:27.720Z,99.99
2022-10-03T04:37:27.682Z,99.99
2022-10-03T04:38:27.670Z,99.99
2022-10-03T04:39:27.672Z,99.99
2022-10-03T04:40:27.662Z,99.99
2022-10-03T04:41:27.688Z,99.99
2022-10-03T04:42:27.643Z,99.99
2022-10-03T04:43:27.632Z,99.99
2022-10-03T04:44:27.621Z,99.99
2022-10-03T04:45:27.628Z,99.99
2022-10-03T04:46:27.623Z,99.99
2022-10-03T04:47:28.595Z,99.99
2022-10-03T04:48:27.589Z,99.99
2022-10-03T04:49:27.587Z,99.99
2022-10-03T04:50:27.575Z,99.99
2022-10-03T04:51:27.614Z,99.99
2022-10-03T04:52:27.549Z,99.99
2022-10-03T04:53:27.552Z,99.99
2022-10-03T04:54:27.551Z,99.99
2022-10-03T04:55:27.557Z,99.99
2022-10-03T04:56:27.560Z,99.99
2022-10-03T04:57:27.521Z,99.99
2022-10-03T04:58:27.509Z,99.99
2022-10-03T04:59:27.497Z,99.99
2022-10-03T05:00:27.519Z,99.99
2022-10-03T05:01:27.622Z,99.99
2022-10-03T05:02:27.563Z,99.99
2022-10-03T05:03:27.463Z,99.99
2022-10-03T05:04:27.518Z,99.99
2022-10-03T05:05:27.561Z,99.99
2022-10-03T05:06:27.468Z,99.99
2022-10-03T05:07:27.425Z,99.99
2022-10-03T05:08:27.414Z,99.99
2022-10-03T05:09:27.411Z,99.99
2022-10-03T05:10:27.416Z,99.99
2022-10-03T05:11:27.432Z,99.99
2022-10-03T05:12:27.393Z,99.99
2022-10-03T05:13:27.386Z,99.99
2022-10-03T05:14:27.384Z,99.99
2022-10-03T05:15:27.378Z,99.99
2022-10-03T05:16:27.439Z,99.99
2022-10-03T05:17:27.356Z,99.99
2022-10-03T05:18:27.355Z,99.99
2022-10-03T05:19:27.320Z,99.99
2022-10-03T05:20:28.337Z,99.99
2022-10-03T05:21:27.339Z,99.99
2022-10-03T05:22:27.302Z,99.99
2022-10-03T05:23:27.295Z,99.99
2022-10-03T05:24:27.284Z,99.99
2022-10-03T05:25:27.273Z,99.99
2022-10-03T05:26:46.494Z,99.99
2022-10-03T05:27:29.266Z,99.99
2022-10-03T05:28:27.304Z,99.99
2022-10-03T05:29:27.238Z,99.99
2022-10-03T05:30:27.234Z,99.99
2022-10-03T05:31:27.336Z,99.99
2022-10-03T05:32:27.254Z,99.99
2022-10-03T05:33:27.207Z,99.99
2022-10-03T05:34:27.398Z,99.99
2022-10-03T05:35:27.193Z,99.99
2022-10-03T05:36:27.271Z,99.99
2022-10-03T05:37:27.180Z,99.99
2022-10-03T05:38:27.191Z,99.99
2022-10-03T05:39:27.166Z,99.99
2022-10-03T05:40:27.168Z,99.99
2022-10-03T05:41:27.179Z,99.99
2022-10-03T05:42:27.139Z,99.99
2022-10-03T05:43:27.134Z,99.99
2022-10-03T05:44:27.119Z,99.99
2022-10-03T05:45:27.149Z,99.99
2022-10-03T05:46:27.252Z,99.99
2022-10-03T05:47:27.091Z,99.99
2022-10-03T05:48:27.095Z,99.99
2022-10-03T05:49:27.098Z,99.99
2022-10-03T05:50:27.073Z,99.99
2022-10-03T05:51:27.105Z,99.99
2022-10-03T05:52:27.057Z,99.99
2022-10-03T05:53:27.042Z,99.99
2022-10-03T05:54:28.047Z,99.99
2022-10-03T05:55:27.095Z,99.99
2022-10-03T05:56:27.100Z,99.99
2022-10-03T05:57:27.048Z,99.99
2022-10-03T05:58:27.009Z,99.99
2022-10-03T05:59:27.066Z,99.99
2022-10-03T06:00:27.007Z,99.99
2022-10-03T06:01:26.974Z,99.99
2022-10-03T06:02:27.254Z,99.99
2022-10-03T06:03:27.030Z,99.99
2022-10-03T06:04:26.952Z,99.99
2022-10-03T06:05:26.948Z,99.99
2022-10-03T06:06:26.940Z,99.99
2022-10-03T06:07:26.989Z,99.99
2022-10-03T06:08:26.924Z,99.99
2022-10-03T06:09:26.939Z,99.99
2022-10-03T06:10:26.901Z,99.99
2022-10-03T06:11:26.893Z,99.99
2022-10-03T06:12:26.914Z,99.99
2022-10-03T06:14:34.030Z,99.99
2022-10-03T06:15:26.863Z,99.99
2022-10-03T06:16:26.922Z,99.99
2022-10-03T06:17:26.880Z,99.99
2022-10-03T06:18:26.837Z,99.99
2022-10-03T06:19:45.711Z,99.99
2022-10-03T06:20:26.823Z,99.99
2022-10-03T06:22:00.577Z,99.99
2022-10-03T06:22:26.835Z,99.99
2022-10-03T06:23:26.806Z,99.99
2022-10-03T06:24:26.807Z,99.99
2022-10-03T06:25:26.781Z,99.99
2022-10-03T06:26:41.578Z,99.99
2022-10-03T06:27:26.798Z,99.99
2022-10-03T06:28:26.836Z,99.99
2022-10-03T06:29:26.749Z,99.99
2022-10-03T06:30:26.798Z,99.99
2022-10-03T06:31:31.709Z,99.99
2022-10-03T06:32:28.763Z,99.99
2022-10-03T06:33:26.796Z,99.99
2022-10-03T06:34:26.711Z,99.99
2022-10-03T06:35:27.285Z,99.99
2022-10-03T06:36:26.693Z,99.99
2022-10-03T06:37:26.712Z,99.99
2022-10-03T06:38:26.689Z,99.99
2022-10-03T06:40:17.083Z,99.99
2022-10-03T06:40:26.705Z,99.99
2022-10-03T06:41:26.672Z,99.99
2022-10-03T06:42:26.673Z,99.99
2022-10-03T06:43:26.621Z,99.99
2022-10-03T06:44:27.695Z,99.99
2022-10-03T06:45:30.807Z,99.99
2022-10-03T06:46:28.313Z,99.99
2022-10-03T06:47:26.654Z,99.99
2022-10-03T06:48:26.591Z,99.99
2022-10-03T06:49:41.205Z,99.99
2022-10-03T06:50:33.225Z,99.99
2022-10-03T06:51:52.091Z,99.99
2022-10-03T06:52:27.295Z,99.99
2022-10-03T06:53:26.540Z,99.99
2022-10-03T06:54:27.569Z,99.99
2022-10-03T06:55:26.572Z,99.99
2022-10-03T06:56:26.588Z,99.99
2022-10-03T06:57:26.510Z,99.99
2022-10-03T06:58:26.528Z,99.99
2022-10-03T06:59:26.539Z,99.99
2022-10-03T07:00:26.492Z,99.99
2022-10-03T07:01:26.509Z,99.99
2022-10-03T07:02:26.769Z,99.99
2022-10-03T07:03:26.516Z,99.99
2022-10-03T07:04:26.447Z,99.99
2022-10-03T07:05:26.481Z,99.99
2022-10-03T07:06:26.431Z,99.99
2022-10-03T07:07:26.425Z,99.99
2022-10-03T07:08:26.454Z,99.99
2022-10-03T07:09:26.409Z,99.99
2022-10-03T07:10:26.418Z,99.99
2022-10-03T07:11:26.396Z,99.99
2022-10-03T07:12:26.386Z,99.99
2022-10-03T07:13:26.412Z,99.99
2022-10-03T07:14:26.364Z,99.99
2022-10-03T07:15:43.600Z,99.99
2022-10-03T07:16:28.548Z,99.99
2022-10-03T07:17:26.402Z,99.99
2022-10-03T07:18:26.356Z,99.99
2022-10-03T07:19:26.320Z,99.99
2022-10-03T07:20:26.310Z,99.99
2022-10-03T07:21:26.306Z,99.99
2022-10-03T07:22:26.364Z,99.99
2022-10-03T07:23:26.289Z,99.99
2022-10-03T07:24:26.277Z,99.99
2022-10-03T07:25:26.282Z,99.99
2022-10-03T07:26:26.269Z,99.99
2022-10-03T07:27:26.328Z,99.99
2022-10-03T07:28:26.273Z,99.99
2022-10-03T07:29:26.235Z,99.99
2022-10-03T07:30:26.227Z,99.99
2022-10-03T07:31:26.253Z,99.99
2022-10-03T07:32:26.217Z,99.99
2022-10-03T07:33:26.275Z,99.99
2022-10-03T07:34:26.195Z,99.99
2022-10-03T07:35:26.198Z,99.99
2022-10-03T07:36:26.183Z,99.99
2022-10-03T07:37:26.164Z,99.99
2022-10-03T07:38:26.185Z,99.99
2022-10-03T07:39:26.145Z,99.99
2022-10-03T07:40:26.131Z,99.99
2022-10-03T07:41:26.133Z,99.99
2022-10-03T07:42:26.150Z,99.99
2022-10-03T07:43:26.114Z,99.99
2022-10-03T07:44:26.102Z,99.99
2022-10-03T07:45:26.092Z,99.99
2022-10-03T07:46:26.121Z,99.99
2022-10-03T07:47:26.124Z,99.99
2022-10-03T07:48:26.089Z,99.99
2022-10-03T07:49:26.127Z,99.99
2022-10-03T07:50:26.055Z,99.99
2022-10-03T07:51:26.047Z,99.99
2022-10-03T07:52:26.063Z,99.99
2022-10-03T07:53:26.599Z,99.51
2022-10-03T07:54:26.021Z,99.56
2022-10-03T07:55:26.012Z,98.79
2022-10-03T07:56:25.999Z,98.85
2022-10-03T07:57:26.035Z,99.05
2022-10-03T07:58:25.988Z,98.85
2022-10-03T07:59:25.986Z,99.21
2022-10-03T08:00:25.971Z,97.99
2022-10-03T08:01:26.011Z,97.17
2022-10-03T08:02:26.025Z,97.69
2022-10-03T08:03:26.009Z,98.30
2022-10-03T08:04:25.936Z,97.07
2022-10-03T08:05:25.928Z,98.25
2022-10-03T08:06:25.929Z,97.84
2022-10-03T08:07:25.911Z,98.50
2022-10-03T08:08:25.941Z,98.20
2022-10-03T08:09:25.897Z,96.68
2022-10-03T08:10:25.893Z,96.43
2022-10-03T08:11:25.889Z,96.33
2022-10-03T08:12:25.875Z,95.62
2022-10-03T08:13:25.946Z,95.92
2022-10-03T08:14:25.855Z,96.23
2022-10-03T08:15:25.849Z,95.51
2022-10-03T08:16:25.845Z,96.02
2022-10-03T08:17:25.833Z,95.01
2022-10-03T08:18:25.856Z,96.33
2022-10-03T08:19:25.814Z,96.12
2022-10-03T08:20:25.806Z,96.63
2022-10-03T08:21:25.795Z,96.63
2022-10-03T08:22:25.786Z,95.97
2022-10-03T08:23:25.827Z,96.33
2022-10-03T08:24:25.802Z,96.37
2022-10-03T08:25:25.772Z,96.58
2022-10-03T08:26:25.772Z,96.92
2022-10-03T08:27:25.755Z,96.52
2022-10-03T08:28:25.806Z,96.52
2022-10-03T08:29:25.760Z,96.42
2022-10-03T08:30:25.731Z,96.62
2022-10-03T08:31:25.805Z,96.47
2022-10-03T08:32:25.702Z,96.68
2022-10-03T08:33:26.723Z,96.68
2022-10-03T08:34:25.692Z,95.72
2022-10-03T08:35:25.674Z,95.92
2022-10-03T08:36:25.673Z,95.82
2022-10-03T08:37:25.665Z,95.41
2022-10-03T08:38:28.025Z,95.26
2022-10-03T08:39:26.649Z,94.92
2022-10-03T08:40:25.633Z,94.61
2022-10-03T08:41:25.623Z,93.96
2022-10-03T08:42:25.633Z,93.65
2022-10-03T08:43:25.638Z,94.62
2022-10-03T08:44:30.226Z,93.41
2022-10-03T08:45:26.631Z,92.49
2022-10-03T08:46:25.685Z,93.00
2022-10-03T08:47:25.577Z,92.80
2022-10-03T08:48:25.594Z,92.84
2022-10-03T08:49:25.568Z,92.84
2022-10-03T08:50:25.563Z,94.00
2022-10-03T08:51:25.541Z,93.95
2022-10-03T08:52:25.554Z,93.95
2022-10-03T08:53:25.579Z,93.89
2022-10-03T08:54:25.522Z,94.29
2022-10-03T08:55:25.507Z,95.10
2022-10-03T08:56:25.522Z,95.01
2022-10-03T08:57:25.502Z,95.92
2022-10-03T08:58:25.519Z,94.86
2022-10-03T08:59:25.480Z,94.66
2022-10-03T09:00:25.465Z,95.06
2022-10-03T09:01:25.549Z,95.17
2022-10-03T09:02:25.538Z,96.18
2022-10-03T09:03:36.797Z,95.42
2022-10-03T09:04:27.433Z,94.92
2022-10-03T09:05:25.431Z,94.41
2022-10-03T09:06:25.417Z,94.45
2022-10-03T09:07:25.926Z,94.86
2022-10-03T09:08:25.426Z,95.21
2022-10-03T09:09:25.386Z,95.05
2022-10-03T09:10:25.391Z,95.82
2022-10-03T09:11:25.381Z,95.10
2022-10-03T09:12:25.372Z,95.17
2022-10-03T09:13:25.380Z,94.82
2022-10-03T09:14:25.350Z,93.70
2022-10-03T09:15:25.344Z,93.45
2022-10-03T09:16:25.360Z,92.33
2022-10-03T09:17:25.324Z,92.84
2022-10-03T09:18:25.343Z,93.35
2022-10-03T09:19:25.308Z,92.94
2022-10-03T09:20:25.291Z,92.29
2022-10-03T09:21:25.288Z,91.89
2022-10-03T09:22:25.281Z,92.29
2022-10-03T09:23:25.300Z,91.89
2022-10-03T09:24:25.264Z,92.19
2022-10-03T09:25:25.255Z,92.49
2022-10-03T09:26:25.246Z,92.84
2022-10-03T09:27:25.242Z,93.05
2022-10-03T09:28:25.785Z,93.81
2022-10-03T09:29:26.229Z,93.91
2022-10-03T09:30:25.218Z,94.38
2022-10-03T09:31:25.283Z,94.94
2022-10-03T09:32:25.194Z,92.76
2022-10-03T09:33:25.227Z,94.18
2022-10-03T09:34:25.185Z,93.52
2022-10-03T09:35:25.176Z,94.34
2022-10-03T09:36:25.201Z,93.93
2022-10-03T09:37:25.156Z,93.42
2022-10-03T09:38:25.177Z,94.78
2022-10-03T09:39:25.142Z,94.58
2022-10-03T09:40:25.124Z,94.68
2022-10-03T09:41:25.125Z,94.68
2022-10-03T09:42:25.164Z,94.83
2022-10-03T09:43:25.135Z,95.23
2022-10-03T09:44:25.096Z,95.43
2022-10-03T09:45:25.092Z,95.94
2022-10-03T09:46:25.110Z,96.04
2022-10-03T09:47:25.069Z,95.68
2022-10-03T09:48:25.092Z,96.09
2022-10-03T09:49:25.066Z,94.42
2022-10-03T09:50:25.044Z,94.53
2022-10-03T09:51:25.043Z,94.32
2022-10-03T09:52:25.029Z,93.81
2022-10-03T09:53:25.022Z,93.61
2022-10-03T09:54:25.041Z,93.91
2022-10-03T09:55:25.000Z,93.67
2022-10-03T09:56:25.001Z,92.76
2022-10-03T09:57:24.981Z,92.25
2022-10-03T09:58:24.981Z,92.10
2022-10-03T09:59:25.000Z,91.96
2022-10-03T10:00:24.955Z,90.18
2022-10-03T10:01:25.068Z,91.35
2022-10-03T10:02:24.951Z,90.64
2022-10-03T10:03:24.979Z,90.60
2022-10-03T10:04:50.290Z,90.70
2022-10-03T10:05:26.917Z,90.05
2022-10-03T10:06:25.195Z,90.82
2022-10-03T10:07:25.909Z,90.16
2022-10-03T10:08:24.930Z,90.05
2022-10-03T10:09:24.927Z,92.18
2022-10-03T10:10:24.882Z,92.28
2022-10-03T10:11:24.875Z,92.68
2022-10-03T10:12:24.856Z,92.42
2022-10-03T10:13:24.851Z,93.59
2022-10-03T10:14:24.872Z,92.08
2022-10-03T10:15:24.840Z,91.27
2022-10-03T10:16:24.856Z,90.66
2022-10-03T10:17:24.817Z,91.16
2022-10-03T10:18:24.813Z,91.22
2022-10-03T10:19:24.835Z,91.27
2022-10-03T10:20:24.793Z,92.12
2022-10-03T10:21:24.790Z,91.22
2022-10-03T10:22:24.774Z,90.21
2022-10-03T10:23:24.768Z,89.10
2022-10-03T10:24:24.788Z,88.75
2022-10-03T10:25:24.824Z,88.92
2022-10-03T10:26:28.728Z,87.38
2022-10-03T10:27:25.738Z,86.91
2022-10-03T10:28:24.793Z,87.01
2022-10-03T10:29:24.750Z,88.31
2022-10-03T10:30:24.702Z,90.27
2022-10-03T10:31:25.789Z,91.18
2022-10-03T10:32:24.701Z,90.07
2022-10-03T10:33:24.696Z,90.62
2022-10-03T10:34:24.702Z,91.08
2022-10-03T10:35:24.669Z,91.38
2022-10-03T10:36:24.691Z,91.44
2022-10-03T10:37:24.689Z,91.44
2022-10-03T10:38:24.673Z,90.33
2022-10-03T10:39:24.654Z,90.17
2022-10-03T10:40:24.630Z,89.50
2022-10-03T10:41:24.615Z,89.56
2022-10-03T10:42:24.606Z,89.87
2022-10-03T10:43:24.596Z,87.48
2022-10-03T10:44:24.614Z,88.29
2022-10-03T10:45:24.587Z,88.79
2022-10-03T10:46:24.623Z,87.04
2022-10-03T10:47:24.561Z,86.22
2022-10-03T10:48:24.601Z,85.02
2022-10-03T10:49:24.579Z,85.48
2022-10-03T10:50:24.542Z,85.64
2022-10-03T10:51:24.532Z,81.50
2022-10-03T10:52:24.564Z,82.51
2022-10-03T10:53:24.550Z,80.96
2022-10-03T10:54:24.539Z,80.41
2022-10-03T10:55:24.517Z,80.92
2022-10-03T10:56:24.507Z,81.65
2022-10-03T10:57:24.512Z,79.86
2022-10-03T10:58:24.512Z,80.97
2022-10-03T10:59:24.524Z,78.45
2022-10-03T11:00:24.544Z,77.84
2022-10-03T11:01:24.459Z,77.84
2022-10-03T11:02:24.454Z,76.34
2022-10-03T11:03:24.461Z,77.78
2022-10-03T11:04:24.538Z,77.38
2022-10-03T11:05:24.435Z,78.96
2022-10-03T11:06:24.429Z,79.63
2022-10-03T11:07:24.419Z,81.21
2022-10-03T11:08:24.414Z,81.41
2022-10-03T11:09:24.447Z,81.61
2022-10-03T11:10:24.382Z,78.52
2022-10-03T11:11:24.383Z,77.95
2022-10-03T11:12:24.364Z,78.50
2022-10-03T11:13:24.359Z,81.08
2022-10-03T11:14:24.384Z,79.16
2022-10-03T11:15:24.402Z,78.42
2022-10-03T11:16:24.348Z,78.83
2022-10-03T11:17:24.334Z,77.31
2022-10-03T11:18:24.319Z,78.06
2022-10-03T11:19:24.340Z,78.92
2022-10-03T11:20:24.292Z,78.28
2022-10-03T11:21:24.319Z,77.62
2022-10-03T11:22:24.289Z,79.13
2022-10-03T11:23:24.283Z,78.28
2022-10-03T11:24:24.273Z,77.25
2022-10-03T11:25:24.293Z,78.63
2022-10-03T11:26:24.253Z,78.86
2022-10-03T11:27:24.263Z,78.06
2022-10-03T11:28:27.192Z,76.34
2022-10-03T11:29:25.220Z,76.62
2022-10-03T11:30:24.248Z,78.23
2022-10-03T11:31:24.253Z,79.61
2022-10-03T11:32:24.205Z,79.27
2022-10-03T11:33:24.204Z,78.96
2022-10-03T11:34:24.182Z,78.02
2022-10-03T11:35:24.210Z,76.87
2022-10-03T11:36:24.175Z,78.55
2022-10-03T11:37:24.164Z,77.84
2022-10-03T11:38:24.159Z,77.64
2022-10-03T11:39:24.145Z,76.43
2022-10-03T11:40:24.166Z,78.65
2022-10-03T11:41:24.127Z,77.14
2022-10-03T11:42:24.127Z,76.51
2022-10-03T11:43:24.108Z,76.54
2022-10-03T11:44:24.128Z,76.88
2022-10-03T11:45:24.105Z,76.44
2022-10-03T11:46:24.106Z,77.15
2022-10-03T11:47:24.077Z,78.66
2022-10-03T11:48:24.062Z,80.04
2022-10-03T11:49:24.086Z,78.89
2022-10-03T11:50:24.043Z,76.67
2022-10-03T11:51:24.041Z,75.33
2022-10-03T11:52:24.028Z,73.78
2022-10-03T11:53:24.013Z,72.27
2022-10-03T11:54:31.494Z,71.23
2022-10-03T11:55:26.009Z,70.70
2022-10-03T11:56:24.002Z,70.19
2022-10-03T11:57:23.996Z,71.83
2022-10-03T11:58:23.983Z,74.08
2022-10-03T11:59:26.877Z,72.31
2022-10-03T12:00:24.991Z,71.77
2022-10-03T12:01:23.959Z,72.14
2022-10-03T12:02:23.999Z,72.61
2022-10-03T12:03:24.012Z,72.17
2022-10-03T12:04:23.964Z,74.38
2022-10-03T12:05:23.924Z,71.97
2022-10-03T12:06:23.913Z,72.88
2022-10-03T12:07:23.907Z,72.03
2022-10-03T12:08:23.905Z,71.83
2022-10-03T12:09:23.915Z,71.87
2022-10-03T12:10:23.871Z,72.03
2022-10-03T12:11:23.880Z,73.55
2022-10-03T12:12:23.864Z,72.61
2022-10-03T12:13:23.853Z,74.05
2022-10-03T12:14:23.878Z,73.75
2022-10-03T12:15:24.830Z,74.29
2022-10-03T12:16:23.865Z,75.87
2022-10-03T12:17:23.811Z,75.56
2022-10-03T12:18:23.805Z,74.49
2022-10-03T12:19:23.851Z,75.87
2022-10-03T12:20:23.794Z,77.31
2022-10-03T12:21:23.768Z,77.42
2022-10-03T12:22:24.776Z,76.81
2022-10-03T12:23:23.756Z,76.27
2022-10-03T12:24:24.785Z,76.47
2022-10-03T12:25:23.732Z,76.34
2022-10-03T12:26:23.740Z,76.74
2022-10-03T12:27:23.719Z,75.53
2022-10-03T12:28:23.775Z,72.71
2022-10-03T12:29:23.737Z,73.65
2022-10-03T12:30:23.694Z,75.87
2022-10-03T12:31:23.756Z,73.35
2022-10-03T12:32:23.680Z,76.43
2022-10-03T12:33:23.680Z,71.47
2022-10-03T12:34:23.697Z,71.53
2022-10-03T12:35:23.653Z,72.20
2022-10-03T12:36:23.648Z,69.56
2022-10-03T12:37:23.639Z,69.06
2022-10-03T12:38:23.634Z,68.08
2022-10-03T12:39:23.643Z,66.09
2022-10-03T12:40:23.650Z,65.82
2022-10-03T12:41:23.614Z,68.05
2022-10-03T12:43:10.242Z,67.99
2022-10-03T12:43:23.591Z,67.29
2022-10-03T12:44:23.583Z,67.85
2022-10-03T12:45:23.604Z,68.79
2022-10-03T12:46:23.597Z,67.21
2022-10-03T12:47:37.635Z,67.85
2022-10-03T12:48:25.601Z,69.29
2022-10-03T12:49:23.538Z,69.92
2022-10-03T12:50:23.563Z,69.05
2022-10-03T12:51:23.532Z,70.79
2022-10-03T12:52:23.512Z,71.64
2022-10-03T12:53:23.509Z,71.64